Aviation Digital Data Service (ADDS)

Output produced by METARs form (1323 UTC 15 November 2018)
found at http://www.aviationweather.gov/metar/data/
 
SPHY 151100Z 1512/1612 00000KT 9999 FEW020 SCT050 TX17/1519Z TN01/1611Z 
     BECMG 1516/1517 36010KT 
     BECMG 1602/1604 CAVOK
       
SPQU 151100Z 1512/1612 30004KT CAVOK TX21/1519Z TN09/1611Z 
     BECMG 1513/1515 25010KT 
     BECMG 1600/1602 04005KT
       
SPHO 151100Z 1512/1612 00000KT 9999 BKN085 TX28/1519Z TN11/1611Z 
     TEMPO 1518/1522 06010KT FEW050 BKN100
       
SPJR 151100Z 1512/1612 VRB03KT 9999 SCT023 SCT040 TX22/1520Z TN09/1610Z 
     FM151500 15010KT 9999 SCT030 SCT050 
     FM152200 VRB04KT 9999 FEW025 SCT040
       
SPHI 151100Z 1512/1612 18010KT 9999 FEW020 SCT100 TX26/1519Z TN18/1611Z 
     TEMPO 1512/1514 BKN014 
     BECMG 1516/1518 19016KT CAVOK 
     FM160600 18010KT 9999 SCT014
       
TAF SPZO 151100Z 1512/1612 00000KT 9999 SCT050 BKN100 TX24/1519Z TN09/1611Z 
     TEMPO 1519/1522 36012KT FEW040TCU SCT050 BKN100 
     BECMG 1523/1601 SCT040 BKN080
       
SPLO 151115Z 1512/1612 18008KT 9999 BKN030 TX24/1519Z TN17/1611Z
       
TAF SPQT 151100Z 1512/1612 VRB02KT 9999 SCT020 SCT100 TX31/1519Z TN24/1611Z 
     BECMG 1516/1518 01003KT BKN020 
     TEMPO 1605/1609 00000KT 5000 RADZ BKN012 BKN100 
     TEMPO 1610/1612 00000KT 8000 BKN008 SCT100
       
SPJI 151100Z 1512/1612 05003KT 9999 SCT020 BKN080 TX32/1520Z TN18/1611Z 
     TEMPO 1512/1515 00000KT 8000 BKN015 BKN080 
     TEMPO 1608/1612 00000KT 5000 DZRA BKN012 OVC060
       
TAF SPJL 151115Z 1512/1612 VRB04KT 9999 SCT020 TX20/1519Z TN05/1610Z 
     FM151800 10010KT 9999 SCT020 SCT080 
     FM160100 22005KT 9999 SCT020
       
SPSO 151100Z 1512/1612 22006KT 8000 OVC020 TX22/1519Z TN17/1610Z 
     TEMPO 1512/1513 5000 BR OVC014 
     BECMG 1514/1516 28007KT 9999 BKN024 
     BECMG 1519/1521 23012KT CAVOK 
     BECMG 1602/1604 21007KT 8000 SCT014
       
SPCL 151100Z 1512/1612 VRB02KT 9999 SCT015 TX32/1520Z TN24/1611Z 
     BECMG 1517/1519 35005KT BKN020 SCT080 
     PROB30 
     TEMPO 1522/1601 05005KT 5000 RA BKN015 FEW020TCU
       
SPTU 151100Z 1512/1612 00000KT 9999 BKN040 TX30/1519Z TN23/1611Z 
     TEMPO 1519/1522 33010KT 2000 TSRA SCT020CB BKN100 
     BECMG 1522/1523 00000KT CAVOK
       
SPTN 151100Z 1512/1612 22005KT 9999 OVC020 TX25/1519Z TN16/1611Z 
     FM151700 24010KT CAVOK 
     BECMG 1522/1600 22005KT OVC022
       
SPYL 151100Z 1512/1612 19013KT CAVOK TX30/1519Z TN19/1611Z
       
SPST 151100Z 1512/1612 00000KT 9999 SCT015 SCT060 TX34/1519Z TN23/1611Z 
     FM151600 16007KT 9999 SCT025 BKN080 
     FM160000 13002KT 9999 SCT020
       
SPGM 151100Z 1512/1612 00000KT 9999 SCT030 TX33/1519Z TN20/1610Z 
     FM151600 33008KT 9999 SCT040 SCT120 
     FM151900 29004KT 9999 SCT040 BKN100
       
SPRU 151100Z 1512/1612 13005KT 7000 OVC014 TX23/1519Z TN16/1610Z 
     TEMPO 1512/1514 5000 BR OVC008 
     FM151600 18012KT 9999 SCT020 SCT110 
     FM160200 14007KT 8000 BKN017
       
TAF SPME 151100Z 1512/1612 33003KT 9999 BKN012 TX27/1519Z TN22/1611Z 
     FM160000 28008KT 9999 BKN010
       
SPMS 151100Z 1512/1612 24003KT 9999 SCT020 SCT100 TX32/1520Z TN23/1611Z 
     TEMPO 1512/1514 00000KT 5000 DZ BKN005 BKN060 
     BECMG 1603/1605 00000KT BKN015 BKN100 
     TEMPO 1608/1612 3000 RA OVC005